Time;durP1;ratioP1;P1;durP2;ratioP2;P2;SDS_P1;SDS_P2;PMS_P1;PMS_P2;Temp;Humidity;BMP_temperature;BMP_pressure;BME280_temperature;BME280_humidity;BME280_pressure;Samples;Min_cycle;Max_cycle;Signal;HPM_P1;HPM_P2
2024/01/07 00:00:46;;;;;;;20.35;15.48;;;0.70;99.90;;;;;;7372159;19;20387;-65
2024/01/07 00:03:12;;;;;;;23.35;16.48;;;0.70;99.90;;;;;;7373418;19;20026;-65
2024/01/07 00:05:38;;;;;;;23.52;17.40;;;0.70;99.90;;;;;;7375830;19;20023;-65
2024/01/07 00:08:05;;;;;;;21.40;16.05;;;0.70;99.90;;;;;;7372961;19;20032;-66
2024/01/07 00:10:31;;;;;;;20.42;16.08;;;0.70;99.90;;;;;;7373753;19;20070;-65
2024/01/07 00:12:58;;;;;;;23.67;19.02;;;0.80;99.90;;;;;;7370013;19;20060;-72
2024/01/07 00:15:44;;;;;;;20.00;15.95;;;0.70;99.90;;;;;;7371563;19;20028;-69
2024/01/07 00:18:10;;;;;;;22.23;18.10;;;0.70;99.90;;;;;;7368317;19;20054;-66
2024/01/07 00:20:37;;;;;;;19.20;13.55;;;0.80;99.90;;;;;;7373886;19;20015;-65
2024/01/07 00:23:03;;;;;;;20.70;15.93;;;0.70;99.90;;;;;;7369502;19;20347;-66
2024/01/07 00:25:30;;;;;;;16.45;12.73;;;0.70;99.90;;;;;;7373063;19;20055;-65
2024/01/07 00:27:56;;;;;;;18.73;14.57;;;0.70;99.90;;;;;;7368650;19;20696;-65
2024/01/07 00:30:23;;;;;;;18.52;14.00;;;0.70;99.90;;;;;;7373208;19;20064;-65
2024/01/07 00:32:51;;;;;;;19.40;15.13;;;0.70;99.90;;;;;;7370328;19;20024;-74
2024/01/07 00:35:17;;;;;;;20.88;14.73;;;0.80;99.90;;;;;;7369691;19;20018;-65
2024/01/07 00:37:45;;;;;;;17.73;13.52;;;0.70;99.90;;;;;;7370614;19;20042;-67
2024/01/07 00:40:12;;;;;;;17.60;12.77;;;0.70;99.90;;;;;;7366150;19;20014;-66
2024/01/07 00:42:38;;;;;;;15.93;12.50;;;0.70;99.90;;;;;;7367368;19;20078;-66
2024/01/07 00:45:04;;;;;;;18.70;14.13;;;0.70;99.90;;;;;;7366381;19;20026;-66
2024/01/07 00:47:31;;;;;;;19.85;14.90;;;0.70;99.90;;;;;;7368587;19;20364;-67
2024/01/07 00:49:57;;;;;;;17.08;13.63;;;0.70;99.90;;;;;;7370010;19;20082;-67
2024/01/07 00:52:45;;;;;;;20.08;15.98;;;0.70;99.90;;;;;;7369987;19;20049;-66
2024/01/07 00:55:11;;;;;;;19.60;14.25;;;0.70;99.90;;;;;;7372021;19;20022;-66
2024/01/07 00:57:38;;;;;;;19.77;14.73;;;0.70;99.90;;;;;;7377868;19;20029;-72
2024/01/07 01:00:08;;;;;;;22.95;17.58;;;0.70;99.90;;;;;;7377168;19;20022;-72
2024/01/07 01:02:35;;;;;;;20.70;15.25;;;0.70;99.90;;;;;;7375320;19;20018;-66
2024/01/07 01:05:02;;;;;;;19.00;15.27;;;0.70;99.90;;;;;;7377162;19;20062;-66
2024/01/07 01:07:29;;;;;;;21.88;17.25;;;0.80;99.90;;;;;;7378175;19;20058;-66
2024/01/07 01:09:55;;;;;;;21.58;16.63;;;0.70;99.90;;;;;;7376280;19;20019;-66
2024/01/07 01:12:22;;;;;;;21.35;16.00;;;0.70;99.90;;;;;;7378631;19;20018;-66
2024/01/07 01:14:48;;;;;;;19.38;15.60;;;0.70;99.90;;;;;;7372227;19;20035;-67
2024/01/07 01:17:17;;;;;;;23.10;18.05;;;0.70;99.90;;;;;;7377843;19;20411;-66
2024/01/07 01:19:44;;;;;;;21.05;17.25;;;0.70;99.90;;;;;;7377888;19;20098;-72
2024/01/07 01:22:10;;;;;;;20.83;16.50;;;0.80;99.90;;;;;;7378618;19;20058;-72
2024/01/07 01:24:37;;;;;;;21.48;15.88;;;0.70;99.90;;;;;;7377842;19;20022;-72
2024/01/07 01:27:03;;;;;;;24.02;17.70;;;0.70;99.90;;;;;;7376901;19;20014;-72
2024/01/07 01:29:30;;;;;;;20.48;16.13;;;0.70;99.90;;;;;;7377558;19;20022;-73
2024/01/07 01:31:57;;;;;;;19.73;14.93;;;0.80;99.90;;;;;;7377372;19;20078;-72
2024/01/07 01:34:43;;;;;;;22.10;15.93;;;0.80;99.90;;;;;;7376311;19;20078;-66
2024/01/07 01:37:09;;;;;;;22.65;17.48;;;0.80;99.90;;;;;;7378993;19;20078;-66
2024/01/07 01:39:36;;;;;;;19.85;16.25;;;0.70;99.90;;;;;;7376763;19;20023;-66
2024/01/07 01:42:02;;;;;;;19.00;14.88;;;0.70;99.90;;;;;;7375101;19;20044;-66
2024/01/07 01:44:29;;;;;;;23.45;16.27;;;0.80;99.90;;;;;;7369769;19;20027;-66
2024/01/07 01:46:56;;;;;;;21.33;16.92;;;0.70;99.90;;;;;;7375426;19;20026;-66
2024/01/07 01:49:23;;;;;;;19.83;14.32;;;0.70;99.90;;;;;;7376721;19;20018;-66
2024/01/07 01:51:52;;;;;;;19.85;15.65;;;0.70;99.90;;;;;;7376409;19;20078;-66
2024/01/07 01:54:18;;;;;;;19.10;15.23;;;0.70;99.90;;;;;;7372709;19;20023;-67
2024/01/07 01:56:45;;;;;;;22.10;16.17;;;0.70;99.90;;;;;;7374780;19;20863;-66
2024/01/07 01:59:14;;;;;;;18.20;15.32;;;0.70;99.90;;;;;;7373585;19;20022;-73
2024/01/07 02:01:40;;;;;;;20.77;15.18;;;0.70;99.90;;;;;;7373723;19;20026;-72
2024/01/07 02:04:09;;;;;;;20.52;15.85;;;0.70;99.90;;;;;;7375966;19;20118;-66
2024/01/07 02:06:56;;;;;;;15.95;14.13;;;0.70;99.90;;;;;;7370012;19;20050;-66
2024/01/07 02:09:22;;;;;;;17.90;15.75;;;0.60;99.90;;;;;;7375249;19;20054;-71
2024/01/07 02:12:04;;;;;;;20.17;16.98;;;0.60;99.90;;;;;;7376626;19;20014;-72
2024/01/07 02:14:32;;;;;;;17.45;14.27;;;0.60;99.90;;;;;;7374967;19;20041;-72
2024/01/07 02:16:58;;;;;;;15.85;12.85;;;0.60;99.90;;;;;;7375869;19;20038;-72
2024/01/07 02:19:24;;;;;;;20.05;14.80;;;0.60;99.90;;;;;;7375526;19;20025;-72
2024/01/07 02:21:51;;;;;;;18.13;13.10;;;0.70;99.90;;;;;;7372308;19;20022;-71
2024/01/07 02:24:18;;;;;;;16.70;12.38;;;0.60;99.90;;;;;;7375949;19;20074;-72
2024/01/07 02:26:44;;;;;;;19.33;14.30;;;0.60;99.90;;;;;;7375872;19;20572;-72
2024/01/07 02:29:10;;;;;;;15.05;12.75;;;0.70;99.90;;;;;;7375837;19;20022;-72
2024/01/07 02:31:40;;;;;;;16.45;13.25;;;0.70;99.90;;;;;;7378277;19;20022;-72
2024/01/07 02:34:10;;;;;;;15.52;13.38;;;0.60;99.90;;;;;;7374198;19;20062;-70
2024/01/07 02:36:36;;;;;;;16.23;14.45;;;0.60;99.90;;;;;;7374344;19;20021;-72
2024/01/07 02:39:03;;;;;;;17.65;14.57;;;0.60;99.90;;;;;;7371800;19;20019;-72
2024/01/07 02:41:30;;;;;;;18.85;14.18;;;0.70;99.90;;;;;;7378041;19;20362;-72
2024/01/07 02:43:56;;;;;;;17.77;13.95;;;0.60;99.90;;;;;;7370420;19;20621;-72
2024/01/07 02:46:24;;;;;;;17.05;13.65;;;0.60;99.90;;;;;;7373984;19;20086;-71
2024/01/07 02:48:50;;;;;;;18.95;14.30;;;0.70;99.90;;;;;;7373245;19;20018;-71
2024/01/07 02:51:16;;;;;;;16.38;13.57;;;0.60;99.90;;;;;;7373971;19;20022;-72
2024/01/07 02:53:43;;;;;;;19.40;13.80;;;0.60;99.90;;;;;;7373903;19;20561;-71
2024/01/07 02:56:09;;;;;;;18.13;13.98;;;0.60;99.90;;;;;;7368049;19;20627;-72
2024/01/07 02:58:36;;;;;;;18.27;14.27;;;0.60;99.90;;;;;;7374009;19;20029;-72
2024/01/07 03:01:02;;;;;;;15.63;12.77;;;0.60;99.90;;;;;;7372881;19;20021;-71
2024/01/07 03:03:29;;;;;;;18.58;14.27;;;0.60;99.90;;;;;;7369250;19;20819;-71
2024/01/07 03:05:55;;;;;;;18.65;14.75;;;0.60;99.90;;;;;;7373253;19;20021;-74
2024/01/07 03:08:21;;;;;;;17.05;12.80;;;0.50;99.90;;;;;;7374727;19;20791;-72
2024/01/07 03:10:47;;;;;;;19.02;13.25;;;0.60;99.90;;;;;;7371730;19;20599;-72
2024/01/07 03:13:13;;;;;;;16.50;13.25;;;0.50;99.90;;;;;;7373224;19;20074;-72
2024/01/07 03:15:40;;;;;;;17.20;12.57;;;0.50;99.90;;;;;;7376278;19;20018;-72
2024/01/07 03:18:08;;;;;;;17.35;13.70;;;0.50;99.90;;;;;;7371669;19;20014;-66
2024/01/07 03:20:34;;;;;;;16.92;13.57;;;0.50;99.90;;;;;;7374460;19;20010;-66
2024/01/07 03:23:01;;;;;;;17.95;13.57;;;0.50;99.90;;;;;;7369320;19;20093;-66
2024/01/07 03:25:27;;;;;;;16.30;11.73;;;0.40;99.90;;;;;;7376350;19;20018;-67
2024/01/07 03:27:54;;;;;;;16.30;12.48;;;0.50;99.90;;;;;;7368602;19;20833;-67
2024/01/07 03:30:20;;;;;;;18.92;13.13;;;0.40;99.90;;;;;;7375676;19;20378;-66
2024/01/07 03:33:06;;;;;;;16.63;12.93;;;0.50;99.90;;;;;;7374922;19;20018;-67
2024/01/07 03:35:32;;;;;;;15.27;11.15;;;0.50;99.90;;;;;;7374959;19;20094;-66
2024/01/07 03:37:58;;;;;;;14.55;12.07;;;0.50;99.90;;;;;;7375446;19;20039;-66
2024/01/07 03:40:24;;;;;;;15.38;11.98;;;0.50;99.90;;;;;;7373880;19;20040;-66
2024/01/07 03:42:50;;;;;;;14.38;12.25;;;0.50;99.90;;;;;;7373505;19;20090;-66
2024/01/07 03:45:17;;;;;;;14.90;11.50;;;0.50;99.90;;;;;;7371562;19;20014;-66
2024/01/07 03:47:43;;;;;;;17.08;11.98;;;0.50;99.90;;;;;;7371864;19;20039;-66
2024/01/07 03:50:09;;;;;;;14.68;11.00;;;0.50;99.90;;;;;;7370466;19;20014;-66
2024/01/07 03:52:35;;;;;;;13.18;10.80;;;0.50;99.90;;;;;;7373944;19;20027;-66
2024/01/07 03:55:02;;;;;;;13.88;10.85;;;0.40;99.90;;;;;;7372779;19;20027;-66
2024/01/07 03:57:28;;;;;;;12.85;10.20;;;0.50;99.90;;;;;;7371315;19;20018;-66
2024/01/07 03:59:54;;;;;;;14.60;11.02;;;0.50;99.90;;;;;;7371458;19;20041;-67
2024/01/07 04:02:20;;;;;;;12.50;10.18;;;0.40;99.90;;;;;;7371461;19;20018;-66
2024/01/07 04:04:46;;;;;;;14.18;10.65;;;0.50;99.90;;;;;;7372133;19;20759;-71
2024/01/07 04:07:13;;;;;;;14.52;10.80;;;0.40;99.90;;;;;;7370429;19;20018;-67
2024/01/07 04:09:39;;;;;;;10.98;8.80;;;0.50;99.90;;;;;;7370754;19;20029;-66
2024/01/07 04:12:06;;;;;;;13.18;8.98;;;0.40;99.90;;;;;;7371001;19;20018;-66
2024/01/07 04:14:33;;;;;;;13.35;9.30;;;0.40;99.90;;;;;;7371229;19;20022;-66
2024/01/07 04:17:00;;;;;;;12.30;8.98;;;0.40;99.90;;;;;;7370097;19;20770;-66
2024/01/07 04:19:26;;;;;;;12.68;9.20;;;0.40;99.90;;;;;;7370481;19;20017;-66
2024/01/07 04:21:53;;;;;;;14.35;10.05;;;0.40;99.90;;;;;;7366082;19;20041;-66
2024/01/07 04:24:19;;;;;;;11.75;8.52;;;0.40;99.90;;;;;;7365070;19;20052;-66
2024/01/07 04:27:05;;;;;;;14.63;8.63;;;0.30;99.90;;;;;;7366862;19;20026;-66
2024/01/07 04:29:31;;;;;;;10.82;8.98;;;0.30;99.90;;;;;;7367537;19;20422;-66
2024/01/07 04:31:57;;;;;;;10.75;8.40;;;0.30;99.90;;;;;;7375860;19;20159;-66
2024/01/07 04:34:24;;;;;;;11.18;9.00;;;0.30;99.90;;;;;;7375727;19;20022;-66
2024/01/07 04:36:50;;;;;;;12.98;8.90;;;0.30;99.90;;;;;;7378025;19;20026;-66
2024/01/07 04:39:17;;;;;;;15.57;9.70;;;0.20;99.90;;;;;;7375690;19;20370;-66
2024/01/07 04:41:43;;;;;;;11.80;8.40;;;0.30;99.90;;;;;;7376087;19;20018;-66
2024/01/07 04:44:09;;;;;;;9.38;7.53;;;0.20;99.90;;;;;;7375124;19;20019;-66
2024/01/07 04:46:38;;;;;;;10.68;7.28;;;0.20;99.90;;;;;;7377606;19;20022;-66
2024/01/07 04:49:05;;;;;;;10.60;6.95;;;0.20;99.90;;;;;;7372700;19;20668;-66
2024/01/07 04:51:32;;;;;;;12.52;7.82;;;0.20;99.90;;;;;;7376081;19;20517;-71
2024/01/07 04:53:59;;;;;;;8.75;7.38;;;0.20;99.90;;;;;;7372643;19;20744;-72
2024/01/07 04:56:25;;;;;;;9.02;7.72;;;0.20;99.90;;;;;;7373911;19;20049;-72
2024/01/07 04:58:51;;;;;;;11.20;6.95;;;0.20;99.90;;;;;;7375169;19;20916;-71
2024/01/07 05:01:18;;;;;;;13.35;7.72;;;0.20;99.90;;;;;;7371595;19;20023;-71
2024/01/07 05:03:44;;;;;;;7.97;6.43;;;0.20;99.90;;;;;;7375438;19;20378;-71
2024/01/07 05:06:10;;;;;;;10.40;6.45;;;0.20;99.90;;;;;;7371296;19;20491;-66
2024/01/07 05:08:43;;;;;;;8.73;6.50;;;0.20;99.90;;;;;;7377767;19;20022;-66
2024/01/07 05:11:09;;;;;;;9.73;6.03;;;0.20;99.90;;;;;;7369208;19;20022;-66
2024/01/07 05:13:35;;;;;;;10.35;7.32;;;0.20;99.90;;;;;;7377188;19;20018;-66
2024/01/07 05:16:02;;;;;;;9.48;6.10;;;0.10;99.90;;;;;;7374517;19;20022;-67
2024/01/07 05:18:30;;;;;;;7.88;5.95;;;0.20;99.90;;;;;;7377714;19;20023;-66
2024/01/07 05:20:56;;;;;;;9.55;6.63;;;0.20;99.90;;;;;;7373336;19;20018;-66
2024/01/07 05:23:22;;;;;;;8.27;6.00;;;0.20;99.90;;;;;;7378235;19;20018;-72
2024/01/07 05:25:49;;;;;;;8.65;5.70;;;0.20;99.90;;;;;;7372683;19;20022;-66
2024/01/07 05:28:19;;;;;;;7.80;5.88;;;0.20;99.90;;;;;;7371674;19;20015;-66
2024/01/07 05:30:45;;;;;;;8.57;5.78;;;0.20;99.90;;;;;;7373258;19;20019;-71
2024/01/07 05:33:12;;;;;;;8.57;5.05;;;0.20;99.90;;;;;;7376029;19;20018;-72
2024/01/07 05:35:38;;;;;;;7.65;4.97;;;0.20;99.90;;;;;;7375319;19;20026;-65
2024/01/07 05:38:04;;;;;;;8.25;5.30;;;0.10;99.90;;;;;;7373445;19;20485;-72
2024/01/07 05:40:30;;;;;;;8.90;5.30;;;0.10;99.90;;;;;;7375892;19;20018;-72
2024/01/07 05:42:56;;;;;;;6.47;4.88;;;0.10;99.90;;;;;;7372441;19;20086;-72
2024/01/07 05:45:23;;;;;;;5.25;4.05;;;0.10;99.90;;;;;;7376420;19;20033;-72
2024/01/07 05:47:49;;;;;;;7.00;4.57;;;0.10;99.90;;;;;;7377936;19;20018;-72
2024/01/07 05:50:18;;;;;;;6.90;4.95;;;0.00;99.90;;;;;;7375867;19;20019;-72
2024/01/07 05:52:44;;;;;;;7.55;4.90;;;0.00;99.90;;;;;;7373500;19;20022;-65
2024/01/07 05:55:11;;;;;;;7.43;5.10;;;0.00;99.90;;;;;;7373337;19;20748;-65
2024/01/07 05:57:37;;;;;;;6.07;3.97;;;0.00;99.90;;;;;;7372636;19;20039;-66
2024/01/07 06:00:04;;;;;;;7.40;4.45;;;0.00;99.90;;;;;;7374526;19;20082;-65
2024/01/07 06:02:39;;;;;;;6.75;4.30;;;0.10;99.90;;;;;;7373080;19;20762;-65
2024/01/07 06:05:06;;;;;;;9.88;5.00;;;0.10;99.90;;;;;;7377992;19;20487;-73
2024/01/07 06:07:32;;;;;;;8.55;4.38;;;0.10;99.90;;;;;;7377300;19;20014;-72
2024/01/07 06:10:00;;;;;;;11.00;4.40;;;0.10;99.90;;;;;;7374750;19;20587;-73
2024/01/07 06:12:26;;;;;;;7.03;4.03;;;0.10;99.90;;;;;;7376858;19;20030;-73
2024/01/07 06:14:52;;;;;;;6.03;3.78;;;0.10;99.90;;;;;;7377055;19;20027;-73
2024/01/07 06:17:19;;;;;;;4.68;3.38;;;0.10;99.90;;;;;;7374217;19;20033;-72
2024/01/07 06:19:46;;;;;;;6.55;4.32;;;0.10;99.90;;;;;;7373616;19;20025;-73
2024/01/07 06:22:12;;;;;;;6.03;3.63;;;0.20;99.90;;;;;;7376539;19;20022;-73
2024/01/07 06:24:38;;;;;;;6.05;4.15;;;0.10;99.90;;;;;;7375791;19;20010;-72
2024/01/07 06:27:04;;;;;;;7.90;3.78;;;0.20;99.90;;;;;;7375144;19;20493;-72
2024/01/07 06:29:30;;;;;;;5.40;3.42;;;0.20;99.90;;;;;;7371367;19;20018;-65
2024/01/07 06:31:57;;;;;;;7.85;3.72;;;0.20;99.90;;;;;;7374509;19;20022;-73
2024/01/07 06:34:23;;;;;;;6.18;3.33;;;0.10;99.90;;;;;;7370758;19;20026;-72
2024/01/07 06:36:49;;;;;;;6.47;3.63;;;0.20;99.90;;;;;;7374397;19;20018;-72
2024/01/07 06:39:15;;;;;;;5.82;3.22;;;0.20;99.90;;;;;;7370938;19;20011;-72
2024/01/07 06:41:42;;;;;;;8.98;3.10;;;0.10;99.90;;;;;;7371584;19;20011;-72
2024/01/07 06:44:08;;;;;;;6.38;3.00;;;0.20;99.90;;;;;;7367283;19;20022;-62
2024/01/07 06:46:34;;;;;;;5.53;3.22;;;0.20;99.90;;;;;;7372988;19;20019;-63
2024/01/07 06:49:04;;;;;;;7.07;4.07;;;0.10;99.90;;;;;;7369289;19;20018;-71
2024/01/07 06:51:30;;;;;;;10.95;6.55;;;0.20;99.90;;;;;;7371012;19;20856;-72
2024/01/07 06:53:56;;;;;;;7.30;4.35;;;0.20;99.90;;;;;;7366494;19;20022;-72
2024/01/07 06:56:24;;;;;;;7.57;4.38;;;0.20;99.90;;;;;;7372370;19;20010;-72
2024/01/07 06:58:50;;;;;;;5.40;3.17;;;0.20;99.90;;;;;;7371623;19;20018;-72
2024/01/07 07:01:23;;;;;;;8.30;3.17;;;0.20;99.90;;;;;;7372739;19;20364;-72
2024/01/07 07:03:52;;;;;;;5.60;3.75;;;0.10;99.90;;;;;;7372046;19;20025;-72
2024/01/07 07:06:18;;;;;;;12.55;8.82;;;0.20;99.90;;;;;;7374036;19;20622;-72
2024/01/07 07:08:45;;;;;;;8.57;4.40;;;0.10;99.90;;;;;;7373833;19;20572;-72
2024/01/07 07:11:11;;;;;;;6.72;4.18;;;0.10;99.90;;;;;;7373930;19;20549;-72
2024/01/07 07:13:38;;;;;;;5.47;3.53;;;0.20;99.90;;;;;;7373881;19;20623;-71
2024/01/07 07:16:05;;;;;;;5.53;3.22;;;0.20;99.90;;;;;;7370202;19;20367;-72
2024/01/07 07:18:33;;;;;;;4.78;2.92;;;0.20;99.90;;;;;;7372041;19;20018;-72
2024/01/07 07:21:20;;;;;;;5.75;3.95;;;0.20;99.90;;;;;;7372028;19;20090;-72
2024/01/07 07:23:46;;;;;;;5.15;3.25;;;0.20;99.90;;;;;;7372514;19;20022;-62
2024/01/07 07:26:12;;;;;;;4.78;2.80;;;0.20;99.90;;;;;;7371593;19;20014;-62
2024/01/07 07:28:58;;;;;;;5.63;3.58;;;0.20;99.90;;;;;;7372643;19;20077;-62
2024/01/07 07:31:24;;;;;;;7.90;2.95;;;0.20;99.90;;;;;;7371874;19;20021;-62
2024/01/07 07:33:51;;;;;;;7.38;4.90;;;0.20;99.90;;;;;;7374639;19;20029;-62
2024/01/07 07:36:18;;;;;;;5.85;4.25;;;0.20;99.90;;;;;;7369267;19;20498;-62
2024/01/07 07:38:44;;;;;;;7.80;4.45;;;0.10;99.90;;;;;;7373564;19;20030;-62
2024/01/07 07:41:10;;;;;;;7.45;5.25;;;0.20;99.90;;;;;;7366320;19;20473;-72
2024/01/07 07:43:38;;;;;;;9.02;5.00;;;0.20;99.90;;;;;;7370695;19;20113;-71
2024/01/07 07:46:04;;;;;;;4.95;3.03;;;0.20;99.90;;;;;;7365941;19;20078;-72
2024/01/07 07:48:30;;;;;;;10.23;6.10;;;0.20;99.90;;;;;;7369114;19;20098;-73
2024/01/07 07:50:57;;;;;;;7.78;4.22;;;0.20;99.90;;;;;;7366234;19;20082;-62
2024/01/07 07:53:23;;;;;;;3.75;2.22;;;0.20;99.90;;;;;;7368234;19;20029;-62
2024/01/07 07:55:49;;;;;;;6.78;4.75;;;0.20;99.90;;;;;;7367239;19;20022;-62
2024/01/07 07:58:16;;;;;;;4.38;3.08;;;0.10;99.90;;;;;;7367616;19;20426;-62
2024/01/07 08:00:42;;;;;;;10.05;6.78;;;0.10;99.90;;;;;;7363400;19;20018;-73
2024/01/07 08:03:08;;;;;;;9.38;5.32;;;0.10;99.90;;;;;;7359619;19;20018;-72
2024/01/07 08:05:34;;;;;;;5.78;3.60;;;0.10;99.90;;;;;;7362709;19;20018;-72
2024/01/07 08:08:00;;;;;;;11.85;6.57;;;0.00;99.90;;;;;;7364310;19;20753;-72
2024/01/07 08:10:28;;;;;;;3.42;2.65;;;0.00;99.90;;;;;;7368986;19;20041;-62
2024/01/07 08:12:54;;;;;;;11.82;6.45;;;0.00;99.90;;;;;;7367202;19;20063;-72
2024/01/07 08:15:21;;;;;;;7.13;4.05;;;-0.10;99.90;;;;;;7367573;19;20817;-72
2024/01/07 08:17:47;;;;;;;4.70;2.58;;;-0.10;99.90;;;;;;7365326;19;20467;-72
2024/01/07 08:20:33;;;;;;;5.15;2.92;;;-0.10;99.90;;;;;;7368070;19;20943;-72
2024/01/07 08:23:00;;;;;;;7.10;4.43;;;-0.10;99.90;;;;;;7362280;19;20094;-74
2024/01/07 08:25:27;;;;;;;5.63;3.00;;;-0.10;99.90;;;;;;7369005;19;20042;-72
2024/01/07 08:27:53;;;;;;;9.85;5.82;;;-0.10;99.90;;;;;;7364515;19;20018;-72
2024/01/07 08:30:19;;;;;;;16.13;9.57;;;0.00;99.90;;;;;;7370822;19;20019;-66
2024/01/07 08:32:45;;;;;;;5.32;3.10;;;0.10;99.90;;;;;;7367377;19;20022;-63
2024/01/07 08:35:12;;;;;;;3.85;2.53;;;0.10;99.90;;;;;;7367374;19;20964;-64
2024/01/07 08:37:38;;;;;;;9.00;5.55;;;0.20;99.90;;;;;;7365714;19;20669;-64
2024/01/07 08:40:05;;;;;;;6.60;3.58;;;0.30;99.90;;;;;;7366182;19;20097;-65
2024/01/07 08:42:31;;;;;;;5.05;3.08;;;0.30;99.90;;;;;;7367924;19;20398;-74
2024/01/07 08:45:00;;;;;;;9.20;4.72;;;0.20;99.90;;;;;;7223625;19;2822992;-64
2024/01/07 08:47:26;;;;;;;6.22;3.25;;;0.20;99.90;;;;;;7369146;19;20018;-65
2024/01/07 08:49:53;;;;;;;3.05;1.70;;;0.10;99.90;;;;;;7369709;19;20792;-65
2024/01/07 08:52:19;;;;;;;6.30;3.80;;;0.00;99.90;;;;;;7365604;19;20015;-64
2024/01/07 08:54:46;;;;;;;6.18;2.92;;;0.00;99.90;;;;;;7369338;19;20106;-64
2024/01/07 08:57:12;;;;;;;7.60;3.63;;;0.10;99.90;;;;;;7366663;19;20019;-75
2024/01/07 08:59:38;;;;;;;4.70;2.35;;;0.20;99.90;;;;;;7372070;19;20022;-75
2024/01/07 09:02:05;;;;;;;6.40;3.30;;;0.70;99.90;;;;;;7369345;19;20712;-75
2024/01/07 09:04:33;;;;;;;4.63;2.20;;;1.00;99.90;;;;;;7371106;19;20738;-65
2024/01/07 09:07:00;;;;;;;12.50;7.53;;;1.10;99.90;;;;;;7364409;19;20019;-65
2024/01/07 09:09:26;;;;;;;11.30;6.95;;;1.20;99.90;;;;;;7370609;19;21350;-76
2024/01/07 09:11:53;;;;;;;5.75;2.72;;;1.20;99.90;;;;;;7372636;19;20453;-75
2024/01/07 09:14:19;;;;;;;10.20;6.00;;;1.30;99.90;;;;;;7373918;19;20022;-75
2024/01/07 09:16:45;;;;;;;7.03;3.38;;;1.40;99.90;;;;;;7371730;19;20006;-75
2024/01/07 09:19:12;;;;;;;4.97;2.38;;;1.50;99.90;;;;;;7377876;19;20031;-75
2024/01/07 09:21:38;;;;;;;5.25;2.00;;;1.50;99.90;;;;;;7375876;19;20031;-74
2024/01/07 09:24:05;;;;;;;10.05;5.45;;;1.50;99.90;;;;;;7379508;19;20022;-74
2024/01/07 09:26:31;;;;;;;3.30;1.77;;;1.60;99.90;;;;;;7374017;19;20029;-74
2024/01/07 09:28:58;;;;;;;4.97;3.10;;;1.60;99.90;;;;;;7375666;19;20018;-74
2024/01/07 09:31:24;;;;;;;7.03;4.38;;;1.60;99.90;;;;;;7373259;19;20608;-64
2024/01/07 09:33:50;;;;;;;12.23;7.55;;;1.60;99.90;;;;;;7375116;19;20019;-65
2024/01/07 09:36:17;;;;;;;5.18;3.00;;;1.50;99.90;;;;;;7372713;19;20018;-65
2024/01/07 09:38:43;;;;;;;4.75;2.83;;;1.70;99.90;;;;;;7375597;19;20081;-75
2024/01/07 09:41:09;;;;;;;5.55;3.83;;;1.90;99.90;;;;;;7375516;19;20704;-74
2024/01/07 09:43:57;;;;;;;6.63;2.92;;;2.00;99.90;;;;;;7376365;19;20466;-75
2024/01/07 09:46:24;;;;;;;5.15;2.60;;;2.30;99.90;;;;;;7374267;19;20875;-75
2024/01/07 09:48:50;;;;;;;3.38;1.95;;;2.40;99.90;;;;;;7377609;19;20110;-75
2024/01/07 09:51:22;;;;;;;5.53;2.83;;;2.50;99.90;;;;;;7376766;19;20018;-76
2024/01/07 09:53:55;;;;;;;3.05;1.73;;;2.50;99.90;;;;;;7375616;19;20380;-64
2024/01/07 09:56:31;;;;;;;4.75;2.58;;;2.40;99.90;;;;;;7372937;19;20078;-65
2024/01/07 09:58:57;;;;;;;9.65;6.53;;;2.20;99.90;;;;;;7373109;19;20048;-76
2024/01/07 10:01:25;;;;;;;11.63;7.35;;;2.00;99.90;;;;;;7374230;19;20022;-65
2024/01/07 10:03:52;;;;;;;7.82;4.85;;;1.90;99.90;;;;;;7374063;19;20022;-65
2024/01/07 10:06:20;;;;;;;4.32;2.05;;;2.00;99.90;;;;;;7374633;19;20014;-65
2024/01/07 10:08:46;;;;;;;6.00;1.92;;;2.20;99.90;;;;;;7373503;19;20399;-65
2024/01/07 10:11:15;;;;;;;3.75;1.73;;;2.20;99.90;;;;;;7374682;19;20022;-66
2024/01/07 10:13:44;;;;;;;9.38;6.10;;;2.10;99.90;;;;;;7372929;19;20382;-65
2024/01/07 10:16:10;;;;;;;13.45;8.43;;;2.00;99.90;;;;;;7371884;19;20015;-65
2024/01/07 10:18:37;;;;;;;4.32;2.65;;;1.90;99.90;;;;;;7371445;19;20029;-65
2024/01/07 10:21:04;;;;;;;4.82;2.17;;;1.90;99.90;;;;;;7371748;19;20020;-65
2024/01/07 10:23:30;;;;;;;5.22;2.55;;;1.90;99.90;;;;;;7372943;19;20028;-63
2024/01/07 10:25:58;;;;;;;3.72;2.03;;;2.00;99.90;;;;;;7372792;19;20037;-65
2024/01/07 10:28:24;;;;;;;15.25;7.85;;;1.90;99.90;;;;;;7367699;19;20015;-65
2024/01/07 10:30:51;;;;;;;8.13;5.60;;;1.80;99.90;;;;;;7371672;19;20103;-65
2024/01/07 10:33:19;;;;;;;10.77;7.07;;;1.70;99.90;;;;;;7370727;19;20010;-64
2024/01/07 10:35:56;;;;;;;3.38;2.05;;;1.60;99.90;;;;;;7371992;19;20022;-65
2024/01/07 10:38:22;;;;;;;7.78;4.95;;;1.60;99.90;;;;;;7373577;19;20339;-64
2024/01/07 10:40:51;;;;;;;5.00;3.08;;;1.50;99.90;;;;;;7371194;19;20102;-65
2024/01/07 10:43:20;;;;;;;3.90;2.42;;;1.40;99.90;;;;;;7368593;19;20629;-75
2024/01/07 10:45:50;;;;;;;6.93;2.70;;;1.40;99.90;;;;;;7370723;19;20014;-75
2024/01/07 10:48:21;;;;;;;9.35;5.43;;;1.40;99.90;;;;;;7370129;19;20014;-75
2024/01/07 10:50:50;;;;;;;15.27;10.00;;;1.40;99.90;;;;;;7373025;19;20018;-75
2024/01/07 10:53:21;;;;;;;3.45;2.10;;;1.40;99.90;;;;;;7370139;19;20973;-64
2024/01/07 10:56:12;;;;;;;5.15;2.47;;;1.40;99.90;;;;;;7370653;19;20379;-74
2024/01/07 10:58:39;;;;;;;9.25;5.70;;;1.40;99.90;;;;;;7372662;19;20025;-74
2024/01/07 11:01:07;;;;;;;4.13;1.92;;;1.40;99.90;;;;;;7369861;19;20470;-64
2024/01/07 11:04:15;;;;;;;4.20;2.17;;;1.40;99.90;;;;;;7371922;19;20011;-63
2024/01/07 11:07:18;;;;;;;13.93;8.48;;;1.50;99.90;;;;;;7372842;19;20015;-65
2024/01/07 11:10:09;;;;;;;8.02;5.28;;;1.50;99.90;;;;;;7372618;19;20450;-74
2024/01/07 11:12:35;;;;;;;9.45;5.68;;;1.60;99.90;;;;;;7371708;19;20647;-65
2024/01/07 11:15:02;;;;;;;7.70;4.00;;;1.60;99.90;;;;;;7368979;19;20119;-75
2024/01/07 11:17:37;;;;;;;9.38;5.50;;;1.70;99.90;;;;;;7369938;19;20017;-75
2024/01/07 11:20:14;;;;;;;4.50;2.72;;;1.70;99.90;;;;;;7367675;19;20025;-65
2024/01/07 11:22:40;;;;;;;5.78;3.13;;;1.80;99.90;;;;;;7369970;19;20023;-65
2024/01/07 11:25:33;;;;;;;8.82;4.68;;;1.90;99.90;;;;;;7371321;19;20015;-65
2024/01/07 11:28:01;;;;;;;3.40;2.33;;;2.50;99.90;;;;;;7368755;19;20763;-65
2024/01/07 11:30:29;;;;;;;4.60;2.53;;;2.70;99.90;;;;;;7373387;19;20023;-65
2024/01/07 11:33:04;;;;;;;10.35;6.10;;;3.10;99.90;;;;;;7370641;19;20015;-74
2024/01/07 11:35:56;;;;;;;4.70;2.95;;;3.10;99.90;;;;;;7369925;19;20018;-64
2024/01/07 11:38:22;;;;;;;5.03;2.92;;;3.00;99.90;;;;;;7373646;19;20377;-74
2024/01/07 11:40:50;;;;;;;6.22;2.72;;;3.10;99.90;;;;;;7367443;19;20017;-66
2024/01/07 11:43:16;;;;;;;5.70;2.17;;;3.10;99.90;;;;;;7369715;19;20035;-66
2024/01/07 11:45:42;;;;;;;3.70;2.72;;;3.30;99.90;;;;;;7365380;19;20038;-65
2024/01/07 11:48:09;;;;;;;4.45;2.88;;;3.60;99.90;;;;;;7372607;19;20109;-75
2024/01/07 11:50:35;;;;;;;5.97;3.30;;;3.70;99.90;;;;;;7370841;19;20489;-65
2024/01/07 11:53:02;;;;;;;3.65;2.17;;;3.70;99.90;;;;;;7371681;19;20629;-65
2024/01/07 11:55:32;;;;;;;5.90;3.35;;;4.30;99.90;;;;;;7367456;19;20513;-66
2024/01/07 11:58:02;;;;;;;3.40;2.10;;;5.00;99.90;;;;;;7370249;19;20078;-65
2024/01/07 12:00:30;;;;;;;7.60;3.28;;;4.70;99.90;;;;;;7370296;19;20028;-65
2024/01/07 12:02:56;;;;;;;8.07;3.83;;;5.00;99.90;;;;;;7367360;19;20040;-65
2024/01/07 12:05:23;;;;;;;7.03;4.63;;;5.20;99.90;;;;;;7370039;19;20022;-65
2024/01/07 12:07:49;;;;;;;5.15;3.05;;;5.00;99.90;;;;;;7371200;19;20010;-73
2024/01/07 12:10:17;;;;;;;6.65;3.40;;;5.30;99.90;;;;;;7369868;19;20018;-75
2024/01/07 12:12:44;;;;;;;4.53;2.17;;;5.90;99.90;;;;;;7370614;19;20023;-76
2024/01/07 12:15:13;;;;;;;11.00;6.72;;;6.30;99.90;;;;;;7369132;19;20028;-65
2024/01/07 12:17:40;;;;;;;6.15;3.35;;;6.40;99.90;;;;;;7371095;19;20026;-66
2024/01/07 12:20:08;;;;;;;3.60;2.03;;;6.50;99.90;;;;;;7367828;19;20023;-75
2024/01/07 12:23:05;;;;;;;8.32;5.65;;;6.50;99.90;;;;;;7366416;19;20598;-74
2024/01/07 12:25:31;;;;;;;8.10;4.65;;;6.90;95.30;;;;;;7370713;19;20472;-74
2024/01/07 12:27:58;;;;;;;8.02;4.50;;;7.60;99.90;;;;;;7370322;19;20019;-74
2024/01/07 12:30:25;;;;;;;4.30;2.10;;;7.70;95.40;;;;;;7367976;19;20472;-74
2024/01/07 12:32:52;;;;;;;6.57;4.32;;;8.10;95.90;;;;;;7369900;19;20760;-64
2024/01/07 12:35:19;;;;;;;5.85;3.67;;;8.10;88.50;;;;;;7367963;19;20478;-64
2024/01/07 12:37:45;;;;;;;5.93;3.35;;;8.30;87.50;;;;;;7369767;19;20367;-65
2024/01/07 12:40:14;;;;;;;5.47;2.67;;;7.70;86.70;;;;;;7370640;19;20374;-76
2024/01/07 12:42:47;;;;;;;6.63;4.20;;;7.60;89.20;;;;;;7366552;19;20029;-75
2024/01/07 12:45:14;;;;;;;6.40;3.95;;;7.20;89.50;;;;;;7367347;19;20011;-64
2024/01/07 12:47:42;;;;;;;6.88;4.57;;;6.70;91.00;;;;;;7369462;19;20027;-64
2024/01/07 12:50:15;;;;;;;6.60;4.07;;;5.80;94.90;;;;;;7368520;19;20022;-75
2024/01/07 12:52:42;;;;;;;9.15;4.15;;;5.00;99.90;;;;;;7375936;19;20027;-64